Alpena — WAV4647 — position and weather

sailwx.info

Track history (hours):
 
Tides and Currents Weather Stations Pressure Air Temp Water Temp Dewpoint Dewpoint Depression Visibility Wind Speed Wind Dir Waves Ship Positions

Alpena

Owner: INLAND LAKES MANAGEMENT, Muskegon, MI. More information available from US FCC via Universal Licensing System and Coast Guard Vessel Documentation Center.

Last reported at 2018-Jun-22 22:34 UTC. Time now 2018-Jun-25 19:47 UTC.
Position N 45°20' W 083°23'.

Length 154 m; draft 7.3 m.

Type: Cargo ship. MMSI: 366893910.

Date/timePositionNaut miles runAvg speedWind from/ knotsBaromVisibWave heightAir tempDewpointWater temp
2018-Jun-22 22:34N 45°20' W 083°23'112.6
2018-Jun-22 22:29N 45°20' W 083°24'612.5
2018-Jun-22 22:00N 45°24' W 083°31'612.7
2018-Jun-22 21:30N 45°27' W 083°39'612.6
2018-Jun-22 21:00N 45°30' W 083°47'2012.3
2018-Jun-22 19:22N 45°39' W 084°12'412.3
2018-Jun-22 19:01N 45°41' W 084°18'611.8
2018-Jun-22 18:30N 45°42' W 084°26'612.1
2018-Jun-22 18:00N 45°45' W 084°34'612.6
2018-Jun-22 17:31N 45°48' W 084°41'612.1
2018-Jun-22 17:01N 45°49' W 084°50'612.4
2018-Jun-22 16:31N 45°50' W 084°59'612.6
2018-Jun-22 16:01N 45°51' W 085°07'612.4
2018-Jun-22 15:30N 45°52' W 085°17'612.4
2018-Jun-22 15:00N 45°53' W 085°25'612.4
2018-Jun-22 14:31N 45°53' W 085°34'612.4
2018-Jun-22 14:01N 45°51' W 085°42'612.5
2018-Jun-22 13:30N 45°48' W 085°50'612.6
2018-Jun-22 13:00N 45°45' W 085°58'612.5
2018-Jun-22 12:30N 45°42' W 086°06'912.4
2018-Jun-22 11:47N 45°37' W 086°17'412.3
2018-Jun-22 11:30N 45°35' W 086°21'612.4
2018-Jun-22 11:00N 45°32' W 086°29'612.2
2018-Jun-22 10:30N 45°29' W 086°36'612.2
2018-Jun-22 10:00N 45°26' W 086°44'712.1
2018-Jun-22 09:24N 45°26' W 086°54'712.1
2018-Jun-22 08:50N 45°23' W 087°03'55 1.3
2018-Jun-20 14:37N 45°46' W 085°52'112.4
2018-Jun-20 14:30N 45°47' W 085°51'3011.7
2018-Jun-20 11:55N 45°52' W 085°08'512.4
2018-Jun-20 11:30N 45°51' W 085°01'612.3
2018-Jun-20 11:00N 45°50' W 084°52'712.3
2018-Jun-20 10:29N 45°49' W 084°43'1112.3
2018-Jun-20 09:36N 45°43' W 084°30'612.1
2018-Jun-20 09:06N 45°41' W 084°22'112.0
2018-Jun-20 08:59N 45°42' W 084°20'2212.2
2018-Jun-20 07:10N 45°33' W 083°51'212.2
2018-Jun-20 07:00N 45°32' W 083°48'612.2
2018-Jun-20 06:30N 45°29' W 083°41'612.3
2018-Jun-20 06:01N 45°26' W 083°33'  
2018-Jun-15 22:06N 45°21' W 083°25'112.8
2018-Jun-15 22:00N 45°22' W 083°26'612.4
2018-Jun-15 21:30N 45°25' W 083°34'612.5
2018-Jun-15 21:00N 45°28' W 083°42'612.5
2018-Jun-15 20:30N 45°31' W 083°50'712.7
2018-Jun-15 19:55N 45°34' W 083°59'1212.6
2018-Jun-15 18:58N 45°40' W 084°14'511.5
2018-Jun-15 18:30N 45°41' W 084°22'612.0
2018-Jun-15 18:01N 45°43' W 084°30'612.4
2018-Jun-15 17:31N 45°46' W 084°37'612.6
2018-Jun-15 17:01N 45°49' W 084°45'612.4
2018-Jun-15 16:30N 45°50' W 084°54'612.5
2018-Jun-15 16:01N 45°51' W 085°03'612.5
2018-Jun-15 15:30N 45°52' W 085°12'612.7
2018-Jun-15 15:00N 45°52' W 085°21'612.6
2018-Jun-15 14:30N 45°53' W 085°30'612.1
2018-Jun-15 14:00N 45°53' W 085°38'612.9
2018-Jun-15 13:31N 45°50' W 085°46'612.9
2018-Jun-15 13:01N 45°46' W 085°54'612.9
2018-Jun-15 12:30N 45°43' W 086°02'613.0
2018-Jun-15 12:01N 45°40' W 086°11'712.9
2018-Jun-15 11:30N 45°37' W 086°19'45 0.9
2018-Jun-13 12:19N 45°53' W 085°19'612.1
2018-Jun-13 11:50N 45°52' W 085°11'412.2
2018-Jun-13 11:30N 45°51' W 085°05'612.1
2018-Jun-13 10:59N 45°50' W 084°56'612.1
2018-Jun-13 10:28N 45°49' W 084°47'4311.9
2018-Jun-13 06:52N 45°32' W 083°51'412.3
2018-Jun-13 06:30N 45°31' W 083°45'  
Track history (hours):
 
Tides and Currents Weather Stations Pressure Air Temp Water Temp Dewpoint Dewpoint Depression Visibility Wind Speed Wind Dir Waves Ship Positions

Alpena

Owner: INLAND LAKES MANAGEMENT, Muskegon, MI. More information available from US FCC via Universal Licensing System and Coast Guard Vessel Documentation Center.

Last reported at 2018-Jun-22 22:34 UTC. Time now 2018-Jun-25 19:47 UTC.
Position N 45°20' W 083°23'.

Length 154 m; draft 7.3 m.

Type: Cargo ship. MMSI: 366893910.

Date/timePositionNaut miles runAvg speedWind from/ knotsBaromVisibWave heightAir tempDewpointWater temp
2018-Jun-22 22:34N 45°20' W 083°23'112.6
2018-Jun-22 22:29N 45°20' W 083°24'612.5
2018-Jun-22 22:00N 45°24' W 083°31'612.7
2018-Jun-22 21:30N 45°27' W 083°39'612.6
2018-Jun-22 21:00N 45°30' W 083°47'2012.3
2018-Jun-22 19:22N 45°39' W 084°12'412.3
2018-Jun-22 19:01N 45°41' W 084°18'611.8
2018-Jun-22 18:30N 45°42' W 084°26'612.1
2018-Jun-22 18:00N 45°45' W 084°34'612.6
2018-Jun-22 17:31N 45°48' W 084°41'612.1
2018-Jun-22 17:01N 45°49' W 084°50'612.4
2018-Jun-22 16:31N 45°50' W 084°59'612.6
2018-Jun-22 16:01N 45°51' W 085°07'612.4
2018-Jun-22 15:30N 45°52' W 085°17'612.4
2018-Jun-22 15:00N 45°53' W 085°25'612.4
2018-Jun-22 14:31N 45°53' W 085°34'612.4
2018-Jun-22 14:01N 45°51' W 085°42'612.5
2018-Jun-22 13:30N 45°48' W 085°50'612.6
2018-Jun-22 13:00N 45°45' W 085°58'612.5
2018-Jun-22 12:30N 45°42' W 086°06'912.4
2018-Jun-22 11:47N 45°37' W 086°17'412.3
2018-Jun-22 11:30N 45°35' W 086°21'612.4
2018-Jun-22 11:00N 45°32' W 086°29'612.2
2018-Jun-22 10:30N 45°29' W 086°36'612.2
2018-Jun-22 10:00N 45°26' W 086°44'712.1
2018-Jun-22 09:24N 45°26' W 086°54'712.1
2018-Jun-22 08:50N 45°23' W 087°03'55 1.3
2018-Jun-20 14:37N 45°46' W 085°52'112.4
2018-Jun-20 14:30N 45°47' W 085°51'3011.7
2018-Jun-20 11:55N 45°52' W 085°08'512.4
2018-Jun-20 11:30N 45°51' W 085°01'612.3
2018-Jun-20 11:00N 45°50' W 084°52'712.3
2018-Jun-20 10:29N 45°49' W 084°43'1112.3
2018-Jun-20 09:36N 45°43' W 084°30'612.1
2018-Jun-20 09:06N 45°41' W 084°22'112.0
2018-Jun-20 08:59N 45°42' W 084°20'2212.2
2018-Jun-20 07:10N 45°33' W 083°51'212.2
2018-Jun-20 07:00N 45°32' W 083°48'612.2
2018-Jun-20 06:30N 45°29' W 083°41'612.3
2018-Jun-20 06:01N 45°26' W 083°33'  
2018-Jun-15 22:06N 45°21' W 083°25'112.8
2018-Jun-15 22:00N 45°22' W 083°26'612.4
2018-Jun-15 21:30N 45°25' W 083°34'612.5
2018-Jun-15 21:00N 45°28' W 083°42'612.5
2018-Jun-15 20:30N 45°31' W 083°50'712.7
2018-Jun-15 19:55N 45°34' W 083°59'1212.6
2018-Jun-15 18:58N 45°40' W 084°14'511.5
2018-Jun-15 18:30N 45°41' W 084°22'612.0
2018-Jun-15 18:01N 45°43' W 084°30'612.4
2018-Jun-15 17:31N 45°46' W 084°37'612.6
2018-Jun-15 17:01N 45°49' W 084°45'612.4
2018-Jun-15 16:30N 45°50' W 084°54'612.5
2018-Jun-15 16:01N 45°51' W 085°03'612.5
2018-Jun-15 15:30N 45°52' W 085°12'612.7
2018-Jun-15 15:00N 45°52' W 085°21'612.6
2018-Jun-15 14:30N 45°53' W 085°30'612.1
2018-Jun-15 14:00N 45°53' W 085°38'612.9
2018-Jun-15 13:31N 45°50' W 085°46'612.9
2018-Jun-15 13:01N 45°46' W 085°54'612.9
2018-Jun-15 12:30N 45°43' W 086°02'613.0
2018-Jun-15 12:01N 45°40' W 086°11'712.9
2018-Jun-15 11:30N 45°37' W 086°19'45 0.9
2018-Jun-13 12:19N 45°53' W 085°19'612.1
2018-Jun-13 11:50N 45°52' W 085°11'412.2
2018-Jun-13 11:30N 45°51' W 085°05'612.1
2018-Jun-13 10:59N 45°50' W 084°56'612.1
2018-Jun-13 10:28N 45°49' W 084°47'4311.9
2018-Jun-13 06:52N 45°32' W 083°51'412.3
2018-Jun-13 06:30N 45°31' W 083°45'  

Dump ship's entire track history